Time;durP1;ratioP1;P1;durP2;ratioP2;P2;SDS_P1;SDS_P2;PMS_P1;PMS_P2;Temp;Humidity;BMP_temperature;BMP_pressure;BME280_temperature;BME280_humidity;BME280_pressure;Samples;Min_cycle;Max_cycle;Signal;HPM_P1;HPM_P2
2024/01/16 00:01:08;;;;;;;24.45;11.00;;;1.10;99.90;;;;;;5072982;28;20040;-69
2024/01/16 00:03:34;;;;;;;21.85;9.10;;;1.20;99.90;;;;;;5072551;28;20025;-69
2024/01/16 00:06:00;;;;;;;25.45;9.38;;;1.20;99.90;;;;;;5072908;28;20385;-69
2024/01/16 00:08:26;;;;;;;20.10;9.23;;;1.10;99.90;;;;;;5072879;28;20086;-69
2024/01/16 00:10:51;;;;;;;23.30;9.98;;;1.10;99.90;;;;;;5072722;28;20020;-69
2024/01/16 00:13:17;;;;;;;20.05;9.82;;;1.10;99.90;;;;;;5072788;28;20070;-69
2024/01/16 00:15:43;;;;;;;27.40;9.27;;;1.10;99.90;;;;;;5072764;28;20060;-69
2024/01/16 00:18:09;;;;;;;19.83;9.65;;;1.10;99.90;;;;;;5072754;28;20029;-69
2024/01/16 00:20:34;;;;;;;26.08;10.25;;;1.10;99.90;;;;;;5072747;28;20029;-69
2024/01/16 00:23:00;;;;;;;17.90;9.63;;;1.10;99.90;;;;;;5072692;28;20029;-69
2024/01/16 00:25:25;;;;;;;28.40;10.80;;;1.10;99.90;;;;;;5072364;28;20078;-69
2024/01/16 00:27:51;;;;;;;32.25;11.98;;;1.10;99.90;;;;;;5072587;28;20543;-69
2024/01/16 00:30:17;;;;;;;28.83;11.30;;;1.20;99.90;;;;;;5072408;28;20056;-69
2024/01/16 00:32:43;;;;;;;22.88;10.55;;;1.10;99.90;;;;;;5072315;28;20044;-69
2024/01/16 00:35:09;;;;;;;24.50;11.02;;;1.20;99.90;;;;;;5072385;28;20025;-69
2024/01/16 00:37:37;;;;;;;25.30;10.90;;;1.20;99.90;;;;;;5072636;28;20017;-70
2024/01/16 00:40:04;;;;;;;30.58;11.95;;;1.20;99.90;;;;;;5076256;28;20368;-69
2024/01/16 00:42:31;;;;;;;29.67;12.02;;;1.20;99.90;;;;;;5076134;28;20436;-69
2024/01/16 00:44:58;;;;;;;26.73;11.77;;;1.10;99.90;;;;;;5076228;28;20024;-69
2024/01/16 00:47:24;;;;;;;33.33;12.20;;;1.10;99.90;;;;;;5076202;28;20500;-69
2024/01/16 00:49:49;;;;;;;30.30;12.45;;;1.10;99.90;;;;;;5075975;28;20149;-69
2024/01/16 00:52:15;;;;;;;25.40;12.13;;;1.10;99.90;;;;;;5075635;28;20050;-69
2024/01/16 00:54:41;;;;;;;33.05;12.70;;;1.10;99.90;;;;;;5075904;28;20029;-69
2024/01/16 00:57:07;;;;;;;31.35;12.70;;;1.10;99.90;;;;;;5075953;28;20458;-69
2024/01/16 00:59:32;;;;;;;31.65;13.77;;;1.00;99.90;;;;;;5075848;28;20028;-69
2024/01/16 01:01:58;;;;;;;30.02;13.38;;;1.00;99.90;;;;;;5075850;28;20066;-69
2024/01/16 01:04:23;;;;;;;31.20;13.32;;;1.10;99.90;;;;;;5075908;28;20040;-69
2024/01/16 01:06:49;;;;;;;35.17;15.38;;;1.00;99.90;;;;;;5075770;28;20036;-69
2024/01/16 01:09:16;;;;;;;29.92;13.27;;;1.00;99.90;;;;;;5075632;28;20036;-69
2024/01/16 01:11:41;;;;;;;29.20;14.05;;;1.00;99.90;;;;;;5075535;28;20048;-69
2024/01/16 01:14:07;;;;;;;30.13;14.52;;;1.00;99.90;;;;;;5075584;28;20482;-70
2024/01/16 01:16:32;;;;;;;36.75;13.80;;;1.00;99.90;;;;;;5075499;28;20032;-69
2024/01/16 01:18:58;;;;;;;39.92;15.45;;;1.00;99.90;;;;;;5075626;28;20432;-70
2024/01/16 01:21:24;;;;;;;38.33;15.10;;;1.00;99.90;;;;;;5075480;28;20434;-70
2024/01/16 01:23:49;;;;;;;29.80;14.75;;;1.00;99.90;;;;;;5075338;28;20478;-70
2024/01/16 01:26:17;;;;;;;32.42;14.57;;;0.90;99.90;;;;;;5074862;28;20020;-70
2024/01/16 01:28:43;;;;;;;31.70;14.82;;;0.90;99.90;;;;;;5074802;28;20052;-69
2024/01/16 01:31:10;;;;;;;35.53;14.45;;;1.00;99.90;;;;;;5074822;28;20461;-69
2024/01/16 01:33:35;;;;;;;35.03;16.25;;;1.00;99.90;;;;;;5074753;28;20470;-69
2024/01/16 01:36:01;;;;;;;38.35;16.50;;;1.00;99.90;;;;;;5075086;28;20027;-69
2024/01/16 01:38:26;;;;;;;33.17;14.57;;;1.00;99.90;;;;;;5075091;28;20112;-69
2024/01/16 01:40:52;;;;;;;34.28;14.68;;;1.00;99.90;;;;;;5074953;28;20036;-69
2024/01/16 01:43:19;;;;;;;25.70;13.70;;;1.00;99.90;;;;;;5074952;28;20040;-69
2024/01/16 01:45:54;;;;;;;29.83;13.88;;;1.00;99.90;;;;;;5074597;28;20123;-69
2024/01/16 01:48:19;;;;;;;37.30;15.02;;;1.00;99.90;;;;;;5074841;28;20020;-69
2024/01/16 01:50:45;;;;;;;27.85;15.18;;;1.00;99.90;;;;;;5074326;28;20024;-69
2024/01/16 01:53:10;;;;;;;37.47;15.80;;;1.00;99.90;;;;;;5074840;28;20074;-69
2024/01/16 01:55:37;;;;;;;31.25;14.27;;;0.90;99.90;;;;;;5074682;28;20103;-69
2024/01/16 01:58:04;;;;;;;33.75;15.25;;;0.90;99.90;;;;;;5074630;28;20082;-69
2024/01/16 02:00:30;;;;;;;31.42;13.88;;;0.90;99.90;;;;;;5074674;28;20406;-69
2024/01/16 02:02:55;;;;;;;34.58;13.55;;;0.90;99.90;;;;;;5074525;28;20023;-70
2024/01/16 02:05:22;;;;;;;35.55;14.10;;;0.90;99.90;;;;;;5074394;28;20413;-69
2024/01/16 02:07:47;;;;;;;35.17;14.68;;;0.90;99.90;;;;;;5074501;28;20506;-70
2024/01/16 02:10:13;;;;;;;28.92;13.52;;;0.80;99.90;;;;;;5074456;28;20060;-69
2024/01/16 02:12:39;;;;;;;28.90;13.38;;;0.80;99.90;;;;;;5074260;28;20478;-69
2024/01/16 02:15:05;;;;;;;32.15;13.20;;;0.80;99.90;;;;;;5073896;28;20021;-69
2024/01/16 02:17:30;;;;;;;32.90;12.45;;;0.80;99.90;;;;;;5074155;28;20382;-69
2024/01/16 02:19:56;;;;;;;30.70;13.27;;;0.80;99.90;;;;;;5074267;28;20035;-68
2024/01/16 02:22:25;;;;;;;32.95;13.82;;;0.80;99.90;;;;;;5074074;28;20021;-68
2024/01/16 02:24:51;;;;;;;28.60;12.35;;;0.70;99.90;;;;;;5074051;28;20021;-69
2024/01/16 02:27:16;;;;;;;30.65;13.13;;;0.70;99.90;;;;;;5074076;28;20024;-68
2024/01/16 02:29:43;;;;;;;28.48;12.30;;;0.70;99.90;;;;;;5073592;28;20025;-69
2024/01/16 02:32:12;;;;;;;31.58;12.98;;;0.80;99.90;;;;;;5073453;28;20490;-69
2024/01/16 02:34:38;;;;;;;33.33;14.10;;;0.80;99.90;;;;;;5073919;28;20189;-69
2024/01/16 02:37:04;;;;;;;31.98;13.95;;;0.80;99.90;;;;;;5073839;28;20089;-69
2024/01/16 02:39:29;;;;;;;28.98;13.88;;;0.80;99.90;;;;;;5073815;28;20028;-69
2024/01/16 02:41:55;;;;;;;32.50;15.38;;;0.80;99.90;;;;;;5073743;28;20410;-69
2024/01/16 02:44:20;;;;;;;34.95;14.52;;;0.80;99.90;;;;;;5073722;28;20081;-70
2024/01/16 02:46:46;;;;;;;32.63;14.55;;;0.80;99.90;;;;;;5073726;28;20036;-69
2024/01/16 02:49:11;;;;;;;35.28;14.88;;;0.80;99.90;;;;;;5073574;28;20494;-68
2024/01/16 02:51:38;;;;;;;30.70;13.98;;;0.80;99.90;;;;;;5073108;28;20020;-69
2024/01/16 02:54:05;;;;;;;34.38;14.65;;;0.80;99.90;;;;;;5073656;28;20552;-69
2024/01/16 02:56:30;;;;;;;29.05;13.88;;;0.80;99.90;;;;;;5073546;28;20032;-69
2024/01/16 02:58:56;;;;;;;29.08;12.95;;;0.80;99.90;;;;;;5073636;28;20041;-69
2024/01/16 03:01:21;;;;;;;32.08;14.30;;;0.80;99.90;;;;;;5072618;28;20539;-69
2024/01/16 03:03:47;;;;;;;34.55;15.02;;;0.70;99.90;;;;;;5073520;28;20064;-69
2024/01/16 03:06:23;;;;;;;32.95;15.98;;;0.70;99.90;;;;;;5073353;28;20055;-69
2024/01/16 03:08:49;;;;;;;35.50;16.05;;;0.80;99.90;;;;;;5073322;28;20055;-69
2024/01/16 03:11:14;;;;;;;44.50;17.60;;;0.80;99.90;;;;;;5073233;28;20047;-69
2024/01/16 03:13:40;;;;;;;32.08;15.20;;;0.80;99.90;;;;;;5073344;28;20033;-69
2024/01/16 03:16:07;;;;;;;36.80;15.98;;;0.80;99.90;;;;;;5072914;28;20398;-69
2024/01/16 03:18:32;;;;;;;35.25;15.65;;;0.90;99.90;;;;;;5072873;28;20090;-69
2024/01/16 03:20:59;;;;;;;41.50;16.73;;;0.80;99.90;;;;;;5072742;28;20032;-69
2024/01/16 03:23:24;;;;;;;42.50;17.25;;;0.80;99.90;;;;;;5073295;28;20083;-69
2024/01/16 03:25:50;;;;;;;30.15;15.25;;;0.80;99.90;;;;;;5073062;28;20402;-69
2024/01/16 03:28:15;;;;;;;28.27;14.48;;;0.80;99.90;;;;;;5073197;28;20036;-69
2024/01/16 03:30:41;;;;;;;41.28;15.02;;;0.80;99.90;;;;;;5072776;28;20048;-69
2024/01/16 03:33:07;;;;;;;33.13;15.63;;;0.80;99.90;;;;;;5073006;28;20032;-69
2024/01/16 03:35:32;;;;;;;32.55;14.98;;;0.90;99.90;;;;;;5072776;28;20024;-69
2024/01/16 03:37:58;;;;;;;25.15;14.00;;;0.90;99.90;;;;;;5072731;28;20020;-69
2024/01/16 03:40:24;;;;;;;27.75;13.13;;;0.80;99.90;;;;;;5072611;28;20115;-69
2024/01/16 03:42:49;;;;;;;28.58;12.95;;;0.80;99.90;;;;;;5073003;28;20071;-69
2024/01/16 03:45:15;;;;;;;27.13;12.95;;;0.80;99.90;;;;;;5072832;28;20020;-69
2024/01/16 03:47:40;;;;;;;29.08;11.82;;;0.80;99.90;;;;;;5072851;28;20100;-69
2024/01/16 03:50:06;;;;;;;27.65;11.90;;;0.90;99.90;;;;;;5072997;28;20025;-69
2024/01/16 03:52:32;;;;;;;26.90;12.63;;;0.90;99.90;;;;;;5072612;28;20089;-69
2024/01/16 03:54:57;;;;;;;24.75;11.93;;;0.90;99.90;;;;;;5072543;28;20104;-69
2024/01/16 03:57:24;;;;;;;31.63;13.13;;;0.90;99.90;;;;;;5072708;28;20141;-69
2024/01/16 03:59:50;;;;;;;35.50;14.43;;;0.90;99.90;;;;;;5072314;28;20020;-69
2024/01/16 04:02:15;;;;;;;27.38;13.60;;;0.90;99.90;;;;;;5072684;28;20436;-69
2024/01/16 04:04:41;;;;;;;26.25;13.45;;;0.90;99.90;;;;;;5072508;28;20035;-69
2024/01/16 04:07:06;;;;;;;32.33;14.13;;;0.90;99.90;;;;;;5072302;28;20035;-69
2024/01/16 04:09:32;;;;;;;27.35;12.90;;;0.90;99.90;;;;;;5072821;28;20033;-70
2024/01/16 04:11:57;;;;;;;32.65;13.00;;;0.80;99.90;;;;;;5072586;28;20028;-69
2024/01/16 04:14:23;;;;;;;23.58;13.07;;;0.80;99.90;;;;;;5075627;28;20487;-69
2024/01/16 04:16:48;;;;;;;36.22;14.82;;;0.90;99.90;;;;;;5076141;28;20493;-69
2024/01/16 04:19:14;;;;;;;36.45;15.50;;;0.90;99.90;;;;;;5076465;28;20495;-69
2024/01/16 04:21:39;;;;;;;30.15;14.23;;;0.80;99.90;;;;;;5076305;28;20059;-69
2024/01/16 04:24:05;;;;;;;33.60;15.35;;;0.90;99.90;;;;;;5076226;28;20028;-69
2024/01/16 04:26:30;;;;;;;34.05;16.10;;;0.80;99.90;;;;;;5076373;28;20028;-70
2024/01/16 04:28:56;;;;;;;35.92;16.75;;;0.80;99.90;;;;;;5076392;28;20044;-69
2024/01/16 04:31:22;;;;;;;40.95;18.58;;;0.80;99.90;;;;;;5075875;28;20086;-69
2024/01/16 04:33:48;;;;;;;43.65;20.52;;;0.80;99.90;;;;;;5075788;28;20051;-69
2024/01/16 04:36:13;;;;;;;45.40;20.00;;;0.80;99.90;;;;;;5075736;28;20111;-69
2024/01/16 04:38:39;;;;;;;45.92;20.50;;;0.80;99.90;;;;;;5076063;28;20024;-69
2024/01/16 04:41:04;;;;;;;40.90;21.40;;;0.80;99.90;;;;;;5076024;28;20158;-69
2024/01/16 04:43:30;;;;;;;50.13;20.10;;;0.90;99.90;;;;;;5076153;28;20135;-69
2024/01/16 04:45:56;;;;;;;52.42;20.58;;;0.90;99.90;;;;;;5075666;28;20536;-69
2024/01/16 04:48:21;;;;;;;43.17;20.45;;;0.90;99.90;;;;;;5075988;28;20020;-69
2024/01/16 04:50:47;;;;;;;48.25;20.90;;;0.90;99.90;;;;;;5075581;28;20470;-69
2024/01/16 04:53:13;;;;;;;46.88;20.77;;;0.90;99.90;;;;;;5075801;28;20036;-69
2024/01/16 04:55:38;;;;;;;47.42;20.55;;;0.90;99.90;;;;;;5075725;28;20028;-69
2024/01/16 04:58:05;;;;;;;50.35;22.42;;;0.90;99.90;;;;;;5075738;28;20544;-69
2024/01/16 05:00:31;;;;;;;46.67;20.83;;;0.90;99.90;;;;;;5075772;28;20017;-69
2024/01/16 05:02:57;;;;;;;44.42;19.80;;;0.90;99.90;;;;;;5075790;28;20028;-69
2024/01/16 05:05:23;;;;;;;47.80;21.20;;;0.90;99.90;;;;;;5075640;28;20024;-69
2024/01/16 05:07:49;;;;;;;53.00;21.98;;;0.90;99.90;;;;;;5075605;28;20029;-69
2024/01/16 05:10:14;;;;;;;42.78;21.02;;;0.90;99.90;;;;;;5075524;28;20032;-69
2024/01/16 05:12:40;;;;;;;50.22;22.23;;;1.00;99.90;;;;;;5075110;28;20025;-69
2024/01/16 05:15:07;;;;;;;44.67;20.60;;;1.00;99.90;;;;;;5075558;28;20024;-69
2024/01/16 05:17:32;;;;;;;42.70;21.48;;;1.00;99.90;;;;;;5075486;28;20028;-69
2024/01/16 05:19:58;;;;;;;48.17;21.40;;;0.90;99.90;;;;;;5075391;28;20498;-69
2024/01/16 05:22:25;;;;;;;45.70;21.35;;;1.00;99.90;;;;;;5075284;28;20047;-69
2024/01/16 05:24:51;;;;;;;44.53;20.25;;;1.00;99.90;;;;;;5075068;28;20539;-69
2024/01/16 05:27:16;;;;;;;47.95;22.38;;;1.00;99.90;;;;;;5075284;28;20068;-69
2024/01/16 05:29:42;;;;;;;46.53;21.75;;;0.90;99.90;;;;;;5075234;28;20029;-69
2024/01/16 05:32:07;;;;;;;51.47;22.40;;;0.90;99.90;;;;;;5074682;28;20048;-69
2024/01/16 05:34:33;;;;;;;45.33;21.98;;;1.00;99.90;;;;;;5075389;28;20041;-70
2024/01/16 05:36:58;;;;;;;43.35;21.30;;;0.90;99.90;;;;;;5075358;28;20123;-69
2024/01/16 05:39:24;;;;;;;48.60;21.15;;;1.00;99.90;;;;;;5075335;28;20028;-69
2024/01/16 05:41:50;;;;;;;45.13;23.15;;;1.00;99.90;;;;;;5075110;28;20058;-69
2024/01/16 05:44:15;;;;;;;49.33;22.40;;;1.00;99.90;;;;;;5075224;28;20029;-69
2024/01/16 05:46:41;;;;;;;43.47;22.63;;;1.00;99.90;;;;;;5075172;28;20145;-69
2024/01/16 05:49:07;;;;;;;55.30;26.15;;;1.00;99.90;;;;;;5074714;28;20062;-69
2024/01/16 05:51:32;;;;;;;51.30;23.52;;;1.00;99.90;;;;;;5075011;28;20457;-69
2024/01/16 05:53:58;;;;;;;52.15;23.85;;;1.00;99.90;;;;;;5075033;28;20082;-69
2024/01/16 05:56:23;;;;;;;46.97;23.05;;;1.00;99.90;;;;;;5074639;28;20025;-69
2024/01/16 05:58:49;;;;;;;50.03;23.98;;;1.00;99.90;;;;;;5074987;28;20056;-69
2024/01/16 06:01:15;;;;;;;41.80;21.95;;;1.10;99.90;;;;;;5075073;28;20024;-69
2024/01/16 06:03:41;;;;;;;47.95;22.50;;;1.00;99.90;;;;;;5074887;28;20028;-69
2024/01/16 06:06:07;;;;;;;47.05;23.35;;;1.00;99.90;;;;;;5074872;28;20078;-69
2024/01/16 06:08:33;;;;;;;48.75;21.50;;;1.00;99.90;;;;;;5074416;28;20115;-69
2024/01/16 06:10:58;;;;;;;46.15;20.33;;;1.00;99.90;;;;;;5074678;28;20036;-69
2024/01/16 06:13:24;;;;;;;45.80;20.40;;;1.00;99.90;;;;;;5074454;28;20368;-69
2024/01/16 06:15:49;;;;;;;40.00;18.80;;;1.00;99.90;;;;;;5074095;28;20390;-69
2024/01/16 06:18:15;;;;;;;46.03;20.08;;;0.90;99.90;;;;;;5074024;28;20017;-69
2024/01/16 06:20:41;;;;;;;43.05;19.95;;;0.90;99.90;;;;;;5074477;28;20021;-69
2024/01/16 06:23:06;;;;;;;46.55;19.48;;;0.90;99.90;;;;;;5074402;28;20052;-69
2024/01/16 06:25:32;;;;;;;44.63;22.60;;;0.90;99.90;;;;;;5074159;28;20065;-69
2024/01/16 06:27:57;;;;;;;49.88;22.73;;;0.90;99.90;;;;;;5074315;28;20032;-69
2024/01/16 06:30:23;;;;;;;47.95;22.52;;;0.90;99.90;;;;;;5073957;28;20044;-70
2024/01/16 06:32:49;;;;;;;48.40;23.73;;;0.90;99.90;;;;;;5053827;28;20395;-69
2024/01/16 06:35:16;;;;;;;50.72;24.08;;;0.90;99.90;;;;;;5053399;28;20021;-69
2024/01/16 06:37:42;;;;;;;49.78;23.75;;;0.90;99.90;;;;;;5053784;28;20025;-69
2024/01/16 06:40:09;;;;;;;48.78;23.88;;;0.90;99.90;;;;;;5053680;28;20063;-69
2024/01/16 06:42:35;;;;;;;55.45;24.08;;;1.00;99.90;;;;;;5053559;28;20032;-69
2024/01/16 06:45:02;;;;;;;46.53;22.27;;;1.00;99.90;;;;;;5054104;28;20116;-70
2024/01/16 06:47:27;;;;;;;50.95;23.70;;;1.00;99.90;;;;;;5053439;28;20032;-70
2024/01/16 06:49:53;;;;;;;58.17;25.27;;;1.00;99.90;;;;;;5053813;28;20021;-70
2024/01/16 06:52:19;;;;;;;58.38;24.35;;;1.00;99.90;;;;;;5053555;28;20060;-69
2024/01/16 06:54:44;;;;;;;55.30;26.00;;;1.00;99.90;;;;;;5053385;28;20052;-70
2024/01/16 06:57:11;;;;;;;61.08;23.77;;;1.00;99.90;;;;;;5053665;28;20075;-70
2024/01/16 06:59:36;;;;;;;58.10;25.20;;;1.00;99.90;;;;;;5053810;28;20115;-69
2024/01/16 07:02:02;;;;;;;48.20;24.85;;;1.00;99.90;;;;;;5053731;28;20119;-70
2024/01/16 07:04:27;;;;;;;53.58;24.42;;;1.00;99.90;;;;;;5053358;28;20120;-70
2024/01/16 07:06:53;;;;;;;49.38;23.85;;;1.10;99.90;;;;;;5053913;28;20083;-70
2024/01/16 07:09:20;;;;;;;53.53;26.58;;;1.10;99.90;;;;;;5056189;28;20032;-69
2024/01/16 07:11:46;;;;;;;47.30;21.92;;;1.10;99.90;;;;;;5062133;28;20043;-70
2024/01/16 07:14:12;;;;;;;59.42;24.92;;;1.10;99.90;;;;;;5071132;28;20477;-70
2024/01/16 07:16:38;;;;;;;43.45;23.95;;;1.10;99.90;;;;;;5064827;28;20104;-70
2024/01/16 07:19:03;;;;;;;40.88;20.15;;;1.10;99.90;;;;;;5066550;28;20032;-70
2024/01/16 07:21:29;;;;;;;32.78;17.40;;;1.10;99.90;;;;;;5062488;28;20087;-70
2024/01/16 07:23:55;;;;;;;33.70;17.67;;;1.10;99.90;;;;;;5062657;28;20094;-70
2024/01/16 07:26:21;;;;;;;32.28;15.63;;;1.10;99.90;;;;;;5063851;28;20029;-71
2024/01/16 07:28:47;;;;;;;24.17;13.27;;;1.10;99.90;;;;;;5043753;28;20036;-71
2024/01/16 07:31:14;;;;;;;30.50;14.00;;;1.10;99.90;;;;;;5044486;28;20076;-72
2024/01/16 07:33:39;;;;;;;29.38;14.48;;;1.10;99.90;;;;;;5046246;28;20479;-70
2024/01/16 07:36:09;;;;;;;29.58;13.57;;;1.10;99.90;;;;;;5046199;28;20032;-72
2024/01/16 07:38:36;;;;;;;32.10;14.68;;;1.10;99.90;;;;;;5043833;28;20480;-71
2024/01/16 07:41:01;;;;;;;26.48;13.93;;;1.10;99.90;;;;;;5052035;28;20027;-69
2024/01/16 07:43:27;;;;;;;29.85;16.02;;;1.10;99.90;;;;;;5056265;28;20112;-70
2024/01/16 07:45:52;;;;;;;33.00;15.00;;;1.10;99.90;;;;;;5068543;28;20044;-70
2024/01/16 07:48:18;;;;;;;29.05;13.68;;;1.10;99.90;;;;;;5076020;28;20040;-70
2024/01/16 07:50:45;;;;;;;24.65;12.70;;;1.10;99.90;;;;;;5071099;28;20029;-68
2024/01/16 07:53:11;;;;;;;23.00;11.85;;;1.10;99.90;;;;;;5057210;28;20024;-71
2024/01/16 07:55:37;;;;;;;26.15;10.98;;;1.10;99.90;;;;;;5066521;28;20020;-74
2024/01/16 07:58:04;;;;;;;24.65;11.57;;;1.20;99.90;;;;;;5072363;28;20449;-72
2024/01/16 08:00:30;;;;;;;21.85;11.80;;;1.20;99.90;;;;;;5068009;28;20040;-72
2024/01/16 08:02:55;;;;;;;23.73;12.48;;;1.20;99.90;;;;;;5057640;28;20021;-69
2024/01/16 08:05:25;;;;;;;32.65;13.63;;;1.20;99.90;;;;;;5070403;28;20531;-74
2024/01/16 08:07:51;;;;;;;27.88;13.98;;;1.20;99.90;;;;;;5073485;28;20046;-73
2024/01/16 08:10:16;;;;;;;30.58;15.30;;;1.20;99.90;;;;;;5065662;28;20478;-71
2024/01/16 08:12:42;;;;;;;35.55;16.15;;;1.20;99.90;;;;;;5069968;28;20498;-71
2024/01/16 08:15:08;;;;;;;30.85;16.08;;;1.20;99.90;;;;;;5061770;28;20043;-68
2024/01/16 08:17:34;;;;;;;41.55;18.23;;;1.20;99.90;;;;;;5069557;28;20052;-69
2024/01/16 08:19:59;;;;;;;36.75;17.77;;;1.30;99.90;;;;;;5071360;28;20091;-73
2024/01/16 08:22:25;;;;;;;34.60;18.17;;;1.30;99.90;;;;;;5068337;28;20513;-73
2024/01/16 08:24:50;;;;;;;43.65;20.52;;;1.30;99.90;;;;;;5063042;28;20040;-72
2024/01/16 08:27:16;;;;;;;43.78;20.08;;;1.30;99.90;;;;;;5065481;28;20086;-71
2024/01/16 08:29:42;;;;;;;47.67;20.02;;;1.30;99.90;;;;;;5065798;28;20483;-71
2024/01/16 08:32:08;;;;;;;46.88;20.75;;;1.30;99.90;;;;;;5068741;28;20044;-74
2024/01/16 08:34:35;;;;;;;44.35;20.08;;;1.30;99.90;;;;;;5073097;28;20335;-74
2024/01/16 08:37:01;;;;;;;51.00;22.00;;;1.40;99.90;;;;;;5063219;28;20499;-74
2024/01/16 08:39:27;;;;;;;51.65;24.70;;;1.40;99.90;;;;;;5068063;28;20107;-74
2024/01/16 08:41:54;;;;;;;52.40;22.48;;;1.40;99.90;;;;;;5065496;28;20035;-73
2024/01/16 08:44:19;;;;;;;54.95;24.73;;;1.40;99.90;;;;;;5069285;28;20363;-74
2024/01/16 08:46:46;;;;;;;57.08;24.75;;;1.40;99.90;;;;;;5073378;28;20163;-74
2024/01/16 08:49:11;;;;;;;56.60;25.25;;;1.40;99.90;;;;;;5071276;28;20119;-73
2024/01/16 08:51:37;;;;;;;50.20;24.42;;;1.40;99.90;;;;;;5062151;28;20162;-73
2024/01/16 08:54:02;;;;;;;60.22;26.10;;;1.40;99.90;;;;;;5071763;28;20482;-72
2024/01/16 08:56:28;;;;;;;51.03;26.73;;;1.40;99.90;;;;;;5060069;28;20037;-72
2024/01/16 08:58:53;;;;;;;67.65;29.02;;;1.40;99.90;;;;;;5067036;28;20037;-74
2024/01/16 09:01:20;;;;;;;66.50;27.75;;;1.40;99.90;;;;;;5073756;28;20038;-72
2024/01/16 09:03:47;;;;;;;68.45;27.42;;;1.30;99.90;;;;;;5081171;28;20024;-73
2024/01/16 09:06:12;;;;;;;54.20;27.63;;;1.30;99.90;;;;;;5072930;28;20024;-72
2024/01/16 09:08:38;;;;;;;54.97;26.48;;;1.30;99.90;;;;;;5072726;28;20165;-72
2024/01/16 09:11:03;;;;;;;57.65;26.15;;;1.30;99.90;;;;;;5074988;28;20036;-72
2024/01/16 09:13:29;;;;;;;51.83;25.27;;;1.30;99.90;;;;;;5073707;28;20032;-73
2024/01/16 09:15:55;;;;;;;50.60;24.70;;;1.30;99.90;;;;;;5067236;28;20060;-73
2024/01/16 09:18:20;;;;;;;53.38;25.95;;;1.30;99.90;;;;;;5072953;28;20020;-72
2024/01/16 09:20:46;;;;;;;50.30;25.13;;;1.30;99.90;;;;;;5072555;28;20024;-74
2024/01/16 09:23:12;;;;;;;49.10;23.05;;;1.30;99.90;;;;;;5066553;28;20082;-75
2024/01/16 09:25:38;;;;;;;44.67;23.23;;;1.30;99.90;;;;;;5071867;28;20067;-74
2024/01/16 09:28:03;;;;;;;49.22;21.30;;;1.30;99.90;;;;;;5070210;28;20097;-73
2024/01/16 09:30:29;;;;;;;39.22;19.20;;;1.30;99.90;;;;;;5059775;28;20095;-73
2024/01/16 09:32:55;;;;;;;36.00;18.38;;;1.30;99.90;;;;;;5060304;28;20044;-71
2024/01/16 09:35:22;;;;;;;35.67;16.67;;;1.20;99.90;;;;;;5067635;28;20082;-74
2024/01/16 09:37:47;;;;;;;33.78;16.48;;;1.20;99.90;;;;;;5060558;28;20031;-72
2024/01/16 09:40:13;;;;;;;34.60;15.80;;;1.20;99.90;;;;;;5064967;28;20037;-72
2024/01/16 09:42:40;;;;;;;32.70;15.88;;;1.20;99.90;;;;;;5062882;28;20040;-72
2024/01/16 09:45:06;;;;;;;34.42;15.70;;;1.20;99.90;;;;;;5068085;28;20024;-73
2024/01/16 09:47:33;;;;;;;33.40;15.18;;;1.30;99.90;;;;;;5074301;28;20070;-73
2024/01/16 09:50:02;;;;;;;35.60;14.10;;;1.20;99.90;;;;;;5062078;28;20036;-75
2024/01/16 09:52:29;;;;;;;30.45;14.40;;;1.20;99.90;;;;;;5067359;28;20063;-72
2024/01/16 09:54:55;;;;;;;26.33;12.43;;;1.20;99.90;;;;;;5062294;28;20448;-73
2024/01/16 09:57:25;;;;;;;24.70;11.70;;;1.20;99.90;;;;;;5060364;28;20557;-73
2024/01/16 09:59:52;;;;;;;29.42;11.65;;;1.20;99.90;;;;;;5063613;28;20423;-73
2024/01/16 10:02:20;;;;;;;21.23;9.65;;;1.20;97.80;;;;;;5080215;28;20024;-73
2024/01/16 10:04:46;;;;;;;20.13;9.20;;;1.20;92.00;;;;;;5065597;28;20043;-73
2024/01/16 10:07:14;;;;;;;21.23;8.40;;;1.20;72.90;;;;;;5061041;28;20085;-72
2024/01/16 10:09:39;;;;;;;21.08;9.02;;;1.20;72.10;;;;;;5061065;28;20083;-72
2024/01/16 10:12:06;;;;;;;16.33;7.75;;;1.20;63.20;;;;;;5060251;28;20067;-73
2024/01/16 10:14:33;;;;;;;22.38;8.00;;;1.30;61.70;;;;;;5064465;28;20106;-71
2024/01/16 10:17:05;;;;;;;20.23;7.72;;;1.30;58.00;;;;;;5067442;28;20081;-73
2024/01/16 10:19:31;;;;;;;16.38;7.57;;;1.30;51.10;;;;;;5078385;28;20367;-74
2024/01/16 10:22:04;;;;;;;16.50;6.68;;;1.40;51.20;;;;;;5058606;28;20032;-73
2024/01/16 10:24:31;;;;;;;20.10;6.55;;;1.40;48.80;;;;;;5067881;28;20033;-72
2024/01/16 10:27:00;;;;;;;19.58;6.43;;;1.40;32.90;;;;;;5062463;28;20083;-72
2024/01/16 10:29:26;;;;;;;14.88;5.60;;;1.30;30.30;;;;;;5056358;28;20024;-73
2024/01/16 10:31:51;;;;;;;19.48;6.80;;;1.30;25.60;;;;;;5068546;28;20102;-69
2024/01/16 10:34:22;;;;;;;19.60;5.53;;;1.30;20.10;;;;;;5072861;28;20017;-69
2024/01/16 10:36:50;;;;;;;19.17;6.53;;;1.30;20.10;;;;;;5071688;28;20121;-69
2024/01/16 10:39:16;;;;;;;24.63;7.10;;;1.30;32.00;;;;;;5067691;28;20025;-69
2024/01/16 10:41:42;;;;;;;19.50;6.05;;;1.30;20.30;;;;;;5058931;28;20031;-70
2024/01/16 10:44:08;;;;;;;16.05;5.90;;;1.40;16.00;;;;;;5069656;28;20031;-70
2024/01/16 10:46:34;;;;;;;16.52;6.20;;;1.40;16.50;;;;;;5069554;28;20111;-70
2024/01/16 10:49:02;;;;;;;24.27;5.90;;;1.40;13.90;;;;;;5064833;28;20028;-70
2024/01/16 10:51:28;;;;;;;18.20;5.90;;;1.40;16.60;;;;;;5076175;28;20025;-71
2024/01/16 10:54:05;;;;;;;12.63;5.07;;;1.40;10.90;;;;;;5066332;28;20445;-70
2024/01/16 10:56:31;;;;;;;13.60;4.88;;;1.40;1.00;;;;;;5073235;28;20020;-70
2024/01/16 10:59:12;;;;;;;14.95;5.15;;;1.40;1.00;;;;;;5071242;28;20089;-70
2024/01/16 11:01:39;;;;;;;19.90;4.40;;;1.40;1.00;;;;;;5073602;28;20036;-69
2024/01/16 11:04:06;;;;;;;15.63;4.68;;;1.40;1.00;;;;;;5071703;28;20524;-69
2024/01/16 11:06:32;;;;;;;11.90;4.50;;;1.40;1.00;;;;;;5072206;28;20537;-69
2024/01/16 11:08:59;;;;;;;15.80;4.97;;;1.40;1.00;;;;;;5073321;28;20116;-69
2024/01/16 11:11:27;;;;;;;13.68;4.45;;;1.50;1.00;;;;;;5071513;28;20090;-70
2024/01/16 11:13:52;;;;;;;17.02;4.30;;;1.60;1.00;;;;;;5064989;28;20470;-70
2024/01/16 11:16:19;;;;;;;11.68;3.90;;;1.60;1.00;;;;;;5070469;28;20028;-69
2024/01/16 11:18:45;;;;;;;13.73;4.10;;;1.60;1.00;;;;;;5062626;28;20028;-69
2024/01/16 11:21:13;;;;;;;18.52;4.38;;;1.60;1.00;;;;;;5070148;28;20383;-70
2024/01/16 11:23:40;;;;;;;16.30;4.60;;;1.70;1.00;;;;;;5071688;28;20529;-70
2024/01/16 11:26:27;;;;;;;16.88;3.92;;;1.70;1.00;;;;;;5064083;28;20470;-69
2024/01/16 11:28:56;;;;;;;14.82;4.50;;;1.70;1.00;;;;;;5072139;28;20029;-69
2024/01/16 11:31:36;;;;;;;17.13;4.53;;;1.70;1.00;;;;;;5066926;28;20137;-69
2024/01/16 11:34:04;;;;;;;11.93;4.75;;;1.80;1.00;;;;;;5066222;28;20044;-69
2024/01/16 11:36:53;;;;;;;14.27;4.93;;;1.80;1.00;;;;;;5056924;28;20063;-69
2024/01/16 11:39:21;;;;;;;19.77;4.57;;;1.80;1.00;;;;;;5054566;28;20124;-70
2024/01/16 11:41:58;;;;;;;17.42;5.20;;;1.80;1.00;;;;;;5067418;28;20071;-72
2024/01/16 11:47:19;;;;;;;13.70;4.28;;;1.90;1.00;;;;;;5107857;27;20457;-68
2024/01/16 11:49:46;;;;;;;14.38;4.22;;;1.90;1.00;;;;;;5108279;28;20111;-70
2024/01/16 11:52:13;;;;;;;12.93;4.40;;;2.00;1.00;;;;;;5101299;28;20412;-70
2024/01/16 11:54:41;;;;;;;12.55;4.18;;;1.90;1.00;;;;;;5116842;28;20378;-70
2024/01/16 11:57:36;;;;;;;10.20;4.20;;;1.90;1.00;;;;;;5103066;28;20035;-71
2024/01/16 12:00:12;;;;;;;17.13;5.63;;;1.90;1.00;;;;;;5092561;28;20067;-72
2024/01/16 12:02:48;;;;;;;12.07;5.10;;;1.90;1.00;;;;;;5117473;28;20036;-71
2024/01/16 12:05:14;;;;;;;21.15;5.63;;;2.00;1.00;;;;;;5110275;28;20067;-71
2024/01/16 12:07:45;;;;;;;16.05;5.93;;;2.00;1.00;;;;;;5108053;28;20062;-70
2024/01/16 12:10:11;;;;;;;12.45;5.10;;;2.10;1.00;;;;;;5105453;28;20027;-71
2024/01/16 12:12:36;;;;;;;13.38;5.30;;;2.20;99.90;;;;;;5109791;28;20089;-69
2024/01/16 12:15:03;;;;;;;18.67;5.30;;;2.20;99.90;;;;;;5111349;28;20024;-71
2024/01/16 12:17:29;;;;;;;18.20;4.90;;;2.30;99.90;;;;;;5107328;28;20028;-71
2024/01/16 12:19:54;;;;;;;10.25;4.53;;;2.30;99.90;;;;;;5109672;28;20028;-69
2024/01/16 12:22:22;;;;;;;18.10;5.22;;;2.30;99.90;;;;;;5108534;27;20432;-69
2024/01/16 12:24:48;;;;;;;18.63;4.90;;;2.20;99.90;;;;;;5111726;28;20366;-71
2024/01/16 12:27:14;;;;;;;17.92;5.00;;;2.40;99.90;;;;;;5110001;28;20034;-71
2024/01/16 12:29:41;;;;;;;15.70;4.90;;;2.50;99.90;;;;;;5104017;28;20036;-77
2024/01/16 12:32:09;;;;;;;17.02;4.82;;;2.70;99.90;;;;;;5106801;28;20043;-78
2024/01/16 12:34:35;;;;;;;19.67;5.45;;;2.70;99.90;;;;;;5110216;28;20024;-77
2024/01/16 12:37:08;;;;;;;15.23;4.63;;;2.90;1.00;;;;;;5112667;28;20364;-77
2024/01/16 12:39:35;;;;;;;17.15;5.93;;;3.00;99.90;;;;;;5117211;28;20038;-77